Time;durP1;ratioP1;P1;durP2;ratioP2;P2;SDS_P1;SDS_P2;PMS_P1;PMS_P2;Temp;Humidity;BMP_temperature;BMP_pressure;BME280_temperature;BME280_humidity;BME280_pressure;Samples;Min_cycle;Max_cycle;Signal;HPM_P1;HPM_P2
2023/03/20 00:01:16;;;;;;;39.60;25.90;;;;;;;2.83;64.36;99840.66;107418;1254;69911;-38
2023/03/20 00:03:44;;;;;;;42.10;25.80;;;;;;;2.80;64.08;99834.77;107435;1254;73973;-38
2023/03/20 00:06:20;;;;;;;41.10;24.70;;;;;;;2.84;63.96;99831.86;107468;1254;62371;-38
2023/03/20 00:08:51;;;;;;;39.60;25.10;;;;;;;2.88;63.77;99827.55;107455;1254;60641;-38
2023/03/20 00:11:48;;;;;;;41.90;26.00;;;;;;;2.87;63.84;99820.08;107431;1254;74374;-38
2023/03/20 00:14:19;;;;;;;40.50;25.90;;;;;;;2.87;63.88;99816.42;107397;1254;69458;-38
2023/03/20 00:16:48;;;;;;;39.70;26.00;;;;;;;2.84;63.61;99810.98;107423;1254;74210;-38
2023/03/20 00:19:23;;;;;;;41.40;26.80;;;;;;;2.84;63.53;99813.82;107431;1254;60368;-38
2023/03/20 00:21:53;;;;;;;39.80;26.70;;;;;;;2.82;63.07;99813.15;107428;1254;61203;-38
2023/03/20 00:24:22;;;;;;;40.20;26.50;;;;;;;2.77;62.90;99810.56;107519;1254;73673;-38
2023/03/20 00:27:11;;;;;;;44.80;26.30;;;;;;;2.70;62.75;99807.05;107426;1254;67141;-38
2023/03/20 00:29:41;;;;;;;43.00;27.30;;;;;;;2.65;62.94;99802.19;107219;1254;73771;-38
2023/03/20 00:32:11;;;;;;;43.40;27.30;;;;;;;2.63;62.86;99804.79;107338;1260;60780;-38
2023/03/20 00:34:42;;;;;;;40.90;26.50;;;;;;;2.61;63.02;99805.69;107454;1254;61455;-38
2023/03/20 00:37:13;;;;;;;40.50;26.50;;;;;;;2.58;63.10;99803.59;107456;1254;74928;-38
2023/03/20 00:39:45;;;;;;;45.60;27.90;;;;;;;2.55;63.05;99798.95;107444;1254;69656;-38
2023/03/20 00:42:23;;;;;;;44.30;26.20;;;;;;;2.51;62.93;99793.96;107456;1254;73938;-38
2023/03/20 00:47:50;;;;;;;43.30;27.70;;;;;;;2.43;62.94;99795.47;104353;1290;599912;-38
2023/03/20 00:50:22;;;;;;;44.70;27.00;;;;;;;2.40;62.93;99794.60;106645;1264;60805;-38
2023/03/20 00:52:51;;;;;;;45.30;27.90;;;;;;;2.37;63.01;99790.43;106801;1264;60378;-39
2023/03/20 00:55:20;;;;;;;47.20;27.80;;;;;;;2.34;62.96;99791.12;106874;1264;72322;-38
2023/03/20 00:58:09;;;;;;;47.70;28.80;;;;;;;2.28;62.84;99790.91;106796;1264;69473;-38
2023/03/20 01:00:40;;;;;;;45.80;28.30;;;;;;;2.16;63.23;99790.20;106761;1264;174675;-38
2023/03/20 01:03:31;;;;;;;;;;;;;;;2.11;63.31;99787.08;107045;1266;60782;-38
2023/03/20 01:05:59;;;;;;;45.50;27.00;;;;;;;2.02;63.62;99784.33;106936;1264;61093;-38
2023/03/20 01:08:29;;;;;;;46.10;27.30;;;;;;;1.96;63.93;99784.39;106896;1264;73815;-38
2023/03/20 01:10:57;;;;;;;45.30;25.70;;;;;;;1.96;63.87;99785.61;107020;1263;69929;-38
2023/03/20 01:13:28;;;;;;;46.60;27.90;;;;;;;2.06;63.72;99781.91;106798;1264;73634;-38
2023/03/20 01:15:57;;;;;;;43.80;27.50;;;;;;;2.14;63.53;99783.40;106988;1262;60482;-38
2023/03/20 01:18:26;;;;;;;45.20;26.70;;;;;;;2.19;63.50;99783.63;107014;1263;60032;-38
2023/03/20 01:20:55;;;;;;;39.70;26.00;;;;;;;2.24;63.26;99786.01;107021;1264;72830;-38
2023/03/20 01:23:25;;;;;;;38.90;24.70;;;;;;;2.25;63.32;99787.31;106859;1262;69872;-38
2023/03/20 01:25:56;;;;;;;37.20;24.50;;;;;;;2.28;63.22;99786.16;106997;1266;73134;-38
2023/03/20 01:28:31;;;;;;;39.50;23.80;;;;;;;2.29;63.12;99788.29;106891;1262;60684;-38
2023/03/20 01:30:59;;;;;;;37.00;23.60;;;;;;;2.28;63.13;99788.30;107019;1262;60165;-38
2023/03/20 01:33:49;;;;;;;31.70;18.90;;;;;;;2.26;62.96;99786.94;106960;1263;75650;-38
2023/03/20 01:36:20;;;;;;;39.60;25.50;;;;;;;2.21;62.91;99790.83;107032;1264;69700;-39
2023/03/20 01:38:55;;;;;;;37.80;24.70;;;;;;;2.17;62.80;99787.56;106864;1264;74036;-38
2023/03/20 01:41:25;;;;;;;39.30;24.30;;;;;;;2.13;62.67;99786.71;106877;1261;59483;-38
2023/03/20 01:43:54;;;;;;;41.20;24.80;;;;;;;2.11;62.67;99786.98;107043;1261;60307;-38
2023/03/20 01:46:27;;;;;;;41.20;24.50;;;;;;;2.09;62.75;99783.85;106809;1261;74555;-38
2023/03/20 01:49:27;;;;;;;36.30;23.40;;;;;;;2.08;62.70;99780.49;106989;1261;69886;-39
2023/03/20 01:52:00;;;;;;;37.70;23.40;;;;;;;2.06;62.82;99775.67;106783;1261;74120;-39
2023/03/20 01:54:35;;;;;;;39.60;24.10;;;;;;;2.00;63.10;99775.86;107017;1261;60428;-39
2023/03/20 01:57:19;;;;;;;39.70;23.70;;;;;;;1.95;62.99;99780.91;106231;1264;1003069;-38
2023/03/20 01:59:57;;;;;;;34.40;22.60;;;;;;;1.88;62.99;99777.13;106914;1267;73878;-39
2023/03/20 02:02:30;;;;;;;34.60;21.30;;;;;;;1.82;63.26;99777.06;106827;1264;69916;-39
2023/03/20 02:05:02;;;;;;;34.00;22.20;;;;;;;1.78;63.70;99774.73;106878;1264;73935;-39
2023/03/20 02:07:32;;;;;;;34.50;20.90;;;;;;;1.78;63.71;99773.07;106851;1261;62048;-39
2023/03/20 02:10:10;;;;;;;32.90;20.00;;;;;;;1.86;63.66;99772.72;106879;1262;61635;-38
2023/03/20 02:12:56;;;;;;;27.70;17.80;;;;;;;1.98;63.63;99768.19;106975;1264;73974;-38
2023/03/20 02:15:34;;;;;;;30.10;19.70;;;;;;;2.02;63.70;99760.59;106835;1264;69905;-38
2023/03/20 02:18:12;;;;;;;27.90;19.40;;;;;;;2.04;63.51;99759.73;106931;1264;73713;-38
2023/03/20 02:21:03;;;;;;;;;;;;;;;2.06;63.48;99761.23;107021;1264;61250;-38
2023/03/20 02:24:17;;;;;;;29.50;18.60;;;;;;;2.00;63.35;99752.55;106869;1263;61665;-38
2023/03/20 02:27:19;;;;;;;30.90;18.40;;;;;;;1.95;63.42;99750.55;106775;1263;74556;-38
2023/03/20 02:30:00;;;;;;;26.10;17.00;;;;;;;1.94;63.63;99754.09;107034;1264;69621;-38
2023/03/20 02:32:54;;;;;;;28.80;19.30;;;;;;;1.91;63.90;99757.20;106992;1263;73651;-38
2023/03/20 02:35:49;;;;;;;28.50;18.10;;;;;;;1.84;63.64;99757.30;107037;1266;59602;-38
2023/03/20 02:38:34;;;;;;;30.40;18.20;;;;;;;1.73;63.46;99760.52;107012;1262;61688;-38
2023/03/20 02:41:08;;;;;;;28.90;18.30;;;;;;;1.67;63.12;99765.02;107060;1266;73919;-38
2023/03/20 02:43:47;;;;;;;29.20;18.80;;;;;;;1.60;63.24;99762.33;107010;1264;69935;-38
2023/03/20 02:46:26;;;;;;;29.30;18.40;;;;;;;1.57;63.04;99761.20;106819;1264;74165;-38
2023/03/20 02:49:09;;;;;;;27.40;19.10;;;;;;;1.51;63.12;99764.33;106984;1265;60754;-38
2023/03/20 02:51:47;;;;;;;24.80;16.30;;;;;;;1.42;63.12;99762.06;106911;1263;61146;-38
2023/03/20 02:54:25;;;;;;;36.90;21.40;;;;;;;1.32;63.51;99754.45;106882;1263;74227;-38
2023/03/20 02:57:03;;;;;;;30.20;18.90;;;;;;;1.23;63.80;99750.14;106891;1268;69961;-38
2023/03/20 02:59:50;;;;;;;26.70;17.30;;;;;;;1.19;64.30;99750.35;106865;1263;73944;-38
2023/03/20 03:02:22;;;;;;;20.00;14.30;;;;;;;1.27;64.83;99751.95;106983;1264;62394;-38
2023/03/20 03:05:00;;;;;;;24.20;16.30;;;;;;;1.36;64.72;99747.71;106872;1264;61055;-38
2023/03/20 03:07:31;;;;;;;26.10;16.50;;;;;;;1.41;64.60;99747.33;106881;1264;74468;-38
2023/03/20 03:10:07;;;;;;;23.70;16.00;;;;;;;1.46;64.27;99748.27;107002;1264;69914;-38
2023/03/20 03:12:41;;;;;;;21.80;15.10;;;;;;;1.48;63.95;99744.99;106886;1264;74159;-38
2023/03/20 03:15:14;;;;;;;25.10;15.50;;;;;;;1.49;63.65;99746.08;107010;1262;59798;-38
2023/03/20 03:17:48;;;;;;;22.90;15.20;;;;;;;1.51;63.22;99746.48;106775;1264;61348;-38
2023/03/20 03:20:31;;;;;;;21.80;14.80;;;;;;;1.51;63.17;99748.89;106860;1263;73787;-38
2023/03/20 03:23:00;;;;;;;18.80;12.80;;;;;;;1.51;63.03;99750.88;106918;1264;68478;-38
2023/03/20 03:25:39;;;;;;;19.80;13.60;;;;;;;1.48;62.81;99749.58;107088;1258;72740;-38
2023/03/20 03:28:22;;;;;;;18.30;13.00;;;;;;;1.45;62.87;99744.39;106358;1261;1003311;-38
2023/03/20 03:30:52;;;;;;;23.30;14.50;;;;;;;1.43;62.80;99743.78;107057;1260;61540;-38
2023/03/20 03:33:31;;;;;;;31.10;18.70;;;;;;;1.40;62.87;99743.93;106907;1261;74212;-38
2023/03/20 03:36:26;;;;;;;28.80;18.40;;;;;;;1.36;63.40;99746.38;107128;1261;69947;-38
2023/03/20 03:38:57;;;;;;;35.80;21.50;;;;;;;1.29;63.52;99742.37;107168;1261;73837;-38
2023/03/20 03:41:49;;;;;;;32.30;22.00;;;;;;;1.20;63.52;99743.89;107091;1261;60773;-38
2023/03/20 03:44:30;;;;;;;31.50;20.00;;;;;;;1.12;63.86;99738.48;107013;1261;61445;-38
2023/03/20 03:47:07;;;;;;;32.20;20.30;;;;;;;1.09;64.31;99734.21;107187;1261;74254;-38
2023/03/20 03:49:38;;;;;;;32.70;19.90;;;;;;;1.08;64.74;99729.73;107209;1260;69407;-38
2023/03/20 03:52:12;;;;;;;29.80;19.10;;;;;;;1.15;64.71;99729.11;107028;1261;73881;-38
2023/03/20 03:54:48;;;;;;;26.20;17.50;;;;;;;1.27;64.34;99729.48;106968;1258;59838;-39
2023/03/20 03:57:35;;;;;;;29.00;18.60;;;;;;;1.28;63.84;99729.35;107113;1258;61540;-38
2023/03/20 04:00:10;;;;;;;30.60;20.00;;;;;;;1.26;63.51;99730.81;107109;1261;73205;-38
2023/03/20 04:02:43;;;;;;;31.80;19.20;;;;;;;1.29;63.52;99729.21;107213;1261;69897;-37
2023/03/20 04:05:16;;;;;;;30.90;20.20;;;;;;;1.31;63.46;99728.50;107011;1261;72891;-38
2023/03/20 04:07:46;;;;;;;34.50;21.20;;;;;;;1.30;63.41;99725.85;107377;1254;59646;-39
2023/03/20 04:10:15;;;;;;;43.20;17.30;;;;;;;1.32;63.83;99728.01;107380;1254;61418;-39
2023/03/20 04:12:54;;;;;;;40.70;23.90;;;;;;;1.34;64.26;99730.34;107481;1254;74212;-39
2023/03/20 04:15:22;;;;;;;60.20;24.20;;;;;;;1.35;64.72;99731.13;107361;1254;69953;-39
2023/03/20 04:17:51;;;;;;;79.10;22.20;;;;;;;1.35;64.98;99724.40;107499;1254;72554;-39
2023/03/20 04:20:19;;;;;;;71.80;21.00;;;;;;;1.33;65.55;99726.07;107392;1258;59813;-39
2023/03/20 04:22:50;;;;;;;65.10;23.80;;;;;;;1.32;65.74;99732.91;107497;1254;59973;-39
2023/03/20 04:25:21;;;;;;;35.70;22.70;;;;;;;1.32;66.16;99731.39;107555;1260;73912;-39
2023/03/20 04:27:53;;;;;;;37.40;20.40;;;;;;;1.40;66.11;99730.63;107516;1255;68288;-39
2023/03/20 04:30:46;;;;;;;41.40;21.00;;;;;;;1.47;66.22;99728.66;107378;1255;72911;-38
2023/03/20 04:33:23;;;;;;;44.60;21.60;;;;;;;1.46;66.26;99726.46;107507;1255;59579;-38
2023/03/20 04:36:24;;;;;;;34.00;19.90;;;;;;;1.46;66.59;99724.39;107310;1254;61159;-39
2023/03/20 04:38:53;;;;;;;55.20;21.90;;;;;;;1.46;66.65;99721.03;107322;1254;73917;-39
2023/03/20 04:41:25;;;;;;;36.70;24.20;;;;;;;1.47;66.55;99722.55;107415;1254;69630;-38
2023/03/20 04:43:56;;;;;;;38.20;24.60;;;;;;;1.47;66.63;99717.68;107329;1257;73735;-38
2023/03/20 04:46:26;;;;;;;24.70;16.90;;;;;;;1.47;66.56;99720.11;107359;1255;60774;-39
2023/03/20 04:48:54;;;;;;;34.30;23.40;;;;;;;1.50;66.42;99718.60;107540;1254;61336;-37
2023/03/20 04:51:27;;;;;;;32.30;21.80;;;;;;;1.54;66.25;99716.19;106645;1254;1003008;-37
2023/03/20 04:53:56;;;;;;;30.90;21.70;;;;;;;1.55;65.94;99723.76;107336;1254;68846;-37
2023/03/20 04:56:29;;;;;;;30.00;20.00;;;;;;;1.57;65.73;99725.45;107333;1254;73949;-38
2023/03/20 04:59:18;;;;;;;23.90;17.10;;;;;;;1.50;65.82;99732.88;107494;1259;60713;-38
2023/03/20 05:01:48;;;;;;;21.80;15.90;;;;;;;1.34;66.48;99731.67;107339;1256;61276;-38
2023/03/20 05:04:18;;;;;;;15.30;12.50;;;;;;;1.30;67.14;99730.71;107501;1255;73043;-38
2023/03/20 05:06:48;;;;;;;23.20;16.00;;;;;;;1.40;67.35;99734.52;107335;1255;69473;-38
2023/03/20 05:09:19;;;;;;;19.30;14.50;;;;;;;1.43;67.68;99737.15;107348;1257;73645;-38
2023/03/20 05:11:48;;;;;;;19.80;15.80;;;;;;;1.43;67.98;99730.58;107496;1254;60589;-38
2023/03/20 05:14:42;;;;;;;21.60;14.70;;;;;;;1.50;68.35;99735.59;107506;1254;61598;-38
2023/03/20 05:17:26;;;;;;;20.40;14.80;;;;;;;1.56;68.62;99732.73;107490;1254;74732;-38
2023/03/20 05:20:14;;;;;;;22.50;14.40;;;;;;;1.57;68.88;99735.06;107454;1254;67816;-38
2023/03/20 05:22:56;;;;;;;19.60;14.70;;;;;;;1.52;69.25;99741.81;107469;1259;72364;-38
2023/03/20 05:25:54;;;;;;;18.70;14.50;;;;;;;1.42;69.34;99743.42;106889;1263;60738;-38
2023/03/20 05:28:28;;;;;;;19.50;15.30;;;;;;;1.37;69.95;99735.96;106705;1254;1003630;-38
2023/03/20 05:31:15;;;;;;;18.00;14.30;;;;;;;1.50;70.34;99737.73;107510;1254;74774;-38
2023/03/20 05:34:01;;;;;;;20.90;14.10;;;;;;;1.73;70.24;99735.82;107493;1254;69599;-38
2023/03/20 05:36:56;;;;;;;19.70;14.20;;;;;;;1.90;70.44;99737.12;107501;1253;72932;-38
2023/03/20 05:39:31;;;;;;;19.10;14.40;;;;;;;2.01;70.60;99740.55;107452;1254;60200;-39
2023/03/20 05:42:16;;;;;;;18.90;14.30;;;;;;;2.10;70.67;99741.85;107466;1255;61261;-39
2023/03/20 05:45:09;;;;;;;17.20;14.00;;;;;;;2.13;70.71;99737.24;107522;1255;74501;-38
2023/03/20 05:47:56;;;;;;;20.60;14.30;;;;;;;2.29;70.65;99749.59;107467;1255;70007;-38
2023/03/20 05:50:27;;;;;;;20.10;14.70;;;;;;;2.31;71.10;99752.27;106695;1254;1003745;-38
2023/03/20 05:53:07;;;;;;;15.00;10.70;;;;;;;2.39;71.56;99753.48;107460;1254;62294;-39
2023/03/20 05:55:54;;;;;;;16.50;13.50;;;;;;;2.59;71.88;99760.98;107511;1254;61487;-39
2023/03/20 05:58:46;;;;;;;17.00;13.70;;;;;;;2.81;71.87;99760.39;106600;1254;1003742;-39
2023/03/20 06:01:38;;;;;;;20.80;14.10;;;;;;;2.90;72.28;99758.84;107469;1254;69686;-38
2023/03/20 06:04:26;;;;;;;18.30;14.10;;;;;;;3.00;72.55;99760.14;107489;1254;73570;-39
2023/03/20 06:07:09;;;;;;;19.20;13.90;;;;;;;3.07;72.70;99758.23;107484;1260;60781;-38
2023/03/20 06:09:39;;;;;;;19.40;14.50;;;;;;;3.13;72.91;99761.23;107510;1254;61173;-39
2023/03/20 06:12:11;;;;;;;19.00;14.90;;;;;;;3.19;73.27;99760.34;107466;1254;75008;-39
2023/03/20 06:14:40;;;;;;;17.10;11.00;;;;;;;3.30;73.55;99759.31;107399;1255;69930;-39
2023/03/20 06:17:11;;;;;;;17.30;13.10;;;;;;;3.43;73.50;99754.73;107299;1260;73926;-38
2023/03/20 06:19:43;;;;;;;17.00;13.00;;;;;;;3.62;73.53;99758.50;107384;1255;61602;-39
2023/03/20 06:22:12;;;;;;;17.30;13.60;;;;;;;3.75;73.57;99756.05;107440;1254;61072;-39
2023/03/20 06:24:45;;;;;;;16.70;12.50;;;;;;;3.85;73.67;99758.03;107320;1255;74898;-38
2023/03/20 06:27:14;;;;;;;17.40;13.50;;;;;;;3.95;73.75;99756.08;107472;1255;70099;-38
2023/03/20 06:29:46;;;;;;;18.80;14.60;;;;;;;4.04;74.00;99750.60;107343;1254;73678;-39
2023/03/20 06:32:18;;;;;;;20.70;13.60;;;;;;;4.15;74.10;99751.17;107419;1254;62228;-39
2023/03/20 06:34:48;;;;;;;19.00;14.30;;;;;;;4.38;73.90;99750.80;107446;1254;60247;-39
2023/03/20 06:37:18;;;;;;;19.70;14.60;;;;;;;4.63;73.45;99744.30;107348;1255;75113;-39
2023/03/20 06:39:47;;;;;;;23.70;17.80;;;;;;;4.84;73.05;99743.98;107362;1260;69893;-39
2023/03/20 06:42:15;;;;;;;27.20;18.30;;;;;;;5.03;72.36;99742.48;107525;1255;73400;-39
2023/03/20 06:44:44;;;;;;;32.50;18.50;;;;;;;5.17;71.65;99737.25;107463;1260;61241;-39
2023/03/20 06:47:27;;;;;;;27.50;19.40;;;;;;;5.30;71.38;99737.13;107454;1254;61527;-39
2023/03/20 06:49:57;;;;;;;;;;;;;;;5.39;70.70;99739.45;107498;1254;74808;-39
2023/03/20 06:52:25;;;;;;;26.00;19.40;;;;;;;5.41;70.48;99733.89;107395;1260;68792;-40
2023/03/20 06:55:18;;;;;;;26.50;18.50;;;;;;;5.49;70.14;99734.39;107395;1255;73875;-38
2023/03/20 06:57:46;;;;;;;27.40;19.00;;;;;;;5.60;69.86;99730.34;107360;1255;60722;-37
2023/03/20 07:00:17;;;;;;;25.50;18.20;;;;;;;5.74;69.04;99731.81;107365;1253;61360;-38
2023/03/20 07:02:46;;;;;;;26.80;19.20;;;;;;;5.84;68.41;99739.38;107516;1255;73846;-38
2023/03/20 07:05:15;;;;;;;30.90;20.70;;;;;;;5.89;68.15;99741.31;107340;1254;69242;-38
2023/03/20 07:07:44;;;;;;;32.40;22.00;;;;;;;5.94;67.88;99738.55;107325;1254;73822;-38
2023/03/20 07:10:13;;;;;;;27.80;19.60;;;;;;;6.02;67.88;99736.17;107487;1255;60454;-38
2023/03/20 07:12:47;;;;;;;28.20;20.50;;;;;;;6.09;67.45;99735.48;107364;1260;61198;-38
2023/03/20 07:15:32;;;;;;;29.50;21.90;;;;;;;6.17;67.52;99733.29;107197;1254;74149;-38
2023/03/20 07:18:02;;;;;;;33.30;23.00;;;;;;;6.27;67.54;99731.61;107558;1254;69111;-38
2023/03/20 07:20:33;;;;;;;30.90;22.10;;;;;;;6.39;67.33;99736.07;107340;1254;72797;-38
2023/03/20 07:23:02;;;;;;;28.60;20.70;;;;;;;6.49;66.12;99734.57;107512;1254;62112;-38
2023/03/20 07:25:33;;;;;;;29.80;21.50;;;;;;;6.65;66.14;99733.73;107329;1255;61351;-38
2023/03/20 07:28:13;;;;;;;30.50;22.30;;;;;;;6.86;65.74;99738.98;107469;1255;75080;-38
2023/03/20 07:30:44;;;;;;;34.40;23.60;;;;;;;7.05;65.26;99731.29;107493;1255;69685;-37
2023/03/20 07:33:16;;;;;;;33.10;23.10;;;;;;;7.27;64.61;99730.67;107336;1260;73788;-38
2023/03/20 07:35:45;;;;;;;33.80;23.50;;;;;;;7.48;63.92;99730.61;107367;1255;61488;-38
2023/03/20 07:38:14;;;;;;;33.10;23.80;;;;;;;7.69;63.46;99726.92;107541;1256;60033;-38
2023/03/20 07:40:54;;;;;;;34.60;23.70;;;;;;;7.92;62.32;99729.67;107485;1254;75010;-38
2023/03/20 07:43:24;;;;;;;36.70;24.70;;;;;;;8.09;61.72;99727.25;107355;1255;69877;-38
2023/03/20 07:46:25;;;;;;;34.80;23.40;;;;;;;8.34;60.87;99720.31;107441;1258;73884;-38
2023/03/20 07:48:55;;;;;;;34.80;24.00;;;;;;;8.54;60.10;99719.44;107338;1258;60792;-38
2023/03/20 07:51:24;;;;;;;35.20;23.90;;;;;;;8.73;59.32;99711.02;107219;1258;60614;-38
2023/03/20 07:53:53;;;;;;;35.50;23.90;;;;;;;8.90;58.91;99712.66;107387;1257;73835;-38
2023/03/20 07:56:21;;;;;;;35.80;24.70;;;;;;;9.08;58.24;99709.73;107191;1260;69977;-39
2023/03/20 07:58:51;;;;;;;;;;;;;;;9.21;57.85;99710.42;107385;1259;74862;-38
2023/03/20 08:01:19;;;;;;;37.10;25.10;;;;;;;9.24;57.64;99707.65;107482;1258;61567;-38
2023/03/20 08:03:48;;;;;;;36.60;25.60;;;;;;;9.27;57.73;99706.65;107436;1260;61519;-38
2023/03/20 08:06:28;;;;;;;34.40;24.00;;;;;;;9.43;57.31;99703.26;107412;1259;75537;-39
2023/03/20 08:08:57;;;;;;;31.80;23.80;;;;;;;9.57;56.90;99698.79;107635;1251;69938;-39
2023/03/20 08:11:27;;;;;;;25.10;18.30;;;;;;;9.71;56.28;99696.95;107607;1252;73940;-38
2023/03/20 08:13:56;;;;;;;32.00;23.60;;;;;;;9.85;55.92;99698.48;106942;1257;1002890;-39
2023/03/20 08:16:25;;;;;;;33.10;23.80;;;;;;;9.96;54.63;99697.39;106950;1256;1002938;-38
2023/03/20 08:19:02;;;;;;;35.10;23.80;;;;;;;10.02;53.63;99693.59;107666;1256;75032;-38
2023/03/20 08:21:31;;;;;;;34.80;24.80;;;;;;;10.10;53.57;99695.27;107734;1251;69907;-38
2023/03/20 08:24:00;;;;;;;32.10;24.10;;;;;;;10.25;53.35;99690.41;107735;1256;73930;-38
2023/03/20 08:26:30;;;;;;;32.10;24.10;;;;;;;10.42;52.20;99688.67;107758;1251;60450;-39
2023/03/20 08:28:59;;;;;;;33.30;23.70;;;;;;;10.42;52.05;99685.24;107748;1251;61532;-39
2023/03/20 08:31:30;;;;;;;35.00;24.20;;;;;;;10.34;51.77;99679.65;107689;1256;74775;-38
2023/03/20 08:33:59;;;;;;;;;;;;;;;10.20;52.36;99678.07;107693;1256;70012;-38
2023/03/20 08:36:27;;;;;;;34.90;25.20;;;;;;;10.16;52.73;99673.23;107702;1257;73745;-38
2023/03/20 08:38:56;;;;;;;32.20;23.20;;;;;;;10.22;52.69;99670.92;107736;1254;61582;-39
2023/03/20 08:41:24;;;;;;;33.20;23.70;;;;;;;10.34;52.10;99675.95;107681;1252;61447;-39
2023/03/20 08:43:53;;;;;;;32.10;22.60;;;;;;;10.54;51.86;99675.51;107713;1251;74820;-39
2023/03/20 08:46:22;;;;;;;24.80;17.40;;;;;;;10.79;51.17;99672.29;107696;1251;69869;-39
2023/03/20 08:48:51;;;;;;;31.80;23.80;;;;;;;11.03;50.17;99674.98;107692;1255;73886;-39
2023/03/20 08:51:20;;;;;;;34.40;23.20;;;;;;;11.17;49.62;99675.14;107773;1256;61492;-39
2023/03/20 08:53:48;;;;;;;30.90;23.20;;;;;;;11.31;48.93;99675.67;107645;1251;61544;-39
2023/03/20 08:56:17;;;;;;;29.90;22.20;;;;;;;11.41;48.33;99674.31;107631;1251;75460;-39
2023/03/20 08:58:46;;;;;;;28.40;21.40;;;;;;;11.44;47.83;99675.08;107647;1257;68573;-39
2023/03/20 09:01:15;;;;;;;32.40;22.20;;;;;;;11.40;48.22;99669.80;107683;1251;74187;-39
2023/03/20 09:03:44;;;;;;;26.70;20.00;;;;;;;11.50;48.34;99671.64;107741;1257;61627;-39
2023/03/20 09:06:12;;;;;;;29.70;21.70;;;;;;;11.60;47.55;99669.27;107704;1256;61551;-39
2023/03/20 09:08:41;;;;;;;30.00;23.30;;;;;;;11.55;47.98;99668.33;107630;1251;74992;-40
2023/03/20 09:11:10;;;;;;;32.00;22.40;;;;;;;11.46;48.12;99667.77;107768;1255;69969;-39
2023/03/20 09:13:39;;;;;;;30.70;21.80;;;;;;;11.48;48.20;99666.00;107743;1256;73635;-39
2023/03/20 09:16:08;;;;;;;28.60;20.20;;;;;;;11.61;48.40;99667.04;107728;1256;61549;-39
2023/03/20 09:18:39;;;;;;;31.30;21.00;;;;;;;11.71;47.47;99672.22;107713;1251;60377;-39
2023/03/20 09:21:08;;;;;;;30.20;21.00;;;;;;;11.68;46.78;99669.19;107751;1256;74945;-39
2023/03/20 09:23:36;;;;;;;28.20;20.20;;;;;;;11.55;46.87;99660.11;107741;1251;69627;-39
2023/03/20 09:26:06;;;;;;;20.90;15.40;;;;;;;11.45;47.28;99654.25;107729;1251;73722;-39
2023/03/20 09:28:35;;;;;;;26.30;18.70;;;;;;;11.44;47.50;99652.29;107703;1256;61617;-39
2023/03/20 09:31:04;;;;;;;26.50;19.20;;;;;;;11.46;46.76;99649.22;107746;1256;60811;-39
2023/03/20 09:33:33;;;;;;;26.60;20.80;;;;;;;11.40;46.86;99649.48;107740;1253;74795;-39
2023/03/20 09:36:01;;;;;;;28.40;21.70;;;;;;;11.41;47.80;99646.48;107708;1255;69868;-39
2023/03/20 09:38:31;;;;;;;29.00;20.10;;;;;;;11.48;47.82;99643.53;107702;1251;74051;-39
2023/03/20 09:41:00;;;;;;;27.40;20.00;;;;;;;11.58;47.05;99637.11;107674;1251;61686;-39
2023/03/20 09:43:46;;;;;;;30.80;21.30;;;;;;;11.69;47.12;99630.44;107703;1251;60408;-39
2023/03/20 09:46:27;;;;;;;27.20;20.00;;;;;;;11.86;46.43;99625.39;107663;1251;74916;-39
2023/03/20 09:49:28;;;;;;;29.70;21.50;;;;;;;11.98;46.41;99624.27;107683;1251;69906;-39
2023/03/20 09:51:58;;;;;;;30.00;21.20;;;;;;;12.07;45.91;99627.00;107669;1258;73803;-39
2023/03/20 09:54:35;;;;;;;29.20;21.00;;;;;;;12.10;46.44;99626.14;107693;1251;61547;-39
2023/03/20 09:57:28;;;;;;;33.40;23.60;;;;;;;12.18;46.77;99618.48;107644;1251;61557;-39
2023/03/20 10:00:00;;;;;;;32.60;22.10;;;;;;;12.25;46.86;99619.61;107658;1256;73792;-39
2023/03/20 10:02:44;;;;;;;28.30;21.80;;;;;;;12.20;46.17;99620.86;107589;1256;69647;-39
2023/03/20 10:05:21;;;;;;;32.10;23.20;;;;;;;12.11;46.07;99614.03;107652;1256;73176;-39
2023/03/20 10:07:53;;;;;;;27.10;21.00;;;;;;;12.12;47.20;99609.00;107663;1251;61284;-39
2023/03/20 10:10:47;;;;;;;21.10;16.00;;;;;;;12.36;46.37;99604.55;107732;1256;60913;-39
2023/03/20 10:13:26;;;;;;;29.30;19.90;;;;;;;12.64;45.17;99607.17;107440;1251;75037;-39
2023/03/20 10:16:00;;;;;;;29.80;21.50;;;;;;;12.87;44.72;99607.03;107699;1251;69904;-39
2023/03/20 10:18:33;;;;;;;34.20;22.70;;;;;;;13.19;44.46;99606.77;107703;1251;73925;-39
2023/03/20 10:21:17;;;;;;;26.70;20.90;;;;;;;13.41;43.66;99599.55;107693;1251;61413;-39
2023/03/20 10:23:57;;;;;;;34.20;23.20;;;;;;;13.54;43.27;99597.28;107690;1251;60043;-39
2023/03/20 10:26:26;;;;;;;29.60;21.60;;;;;;;13.54;42.84;99599.85;107714;1251;73944;-38
2023/03/20 10:28:58;;;;;;;28.40;21.00;;;;;;;13.36;42.57;99605.56;107715;1251;69904;-39
2023/03/20 10:31:42;;;;;;;30.70;23.30;;;;;;;13.16;43.13;99595.38;107684;1255;72776;-39
2023/03/20 10:34:30;;;;;;;30.70;21.80;;;;;;;13.01;43.64;99593.91;107650;1256;61822;-39
2023/03/20 10:37:38;;;;;;;28.90;22.10;;;;;;;12.82;43.96;99589.30;107730;1251;61491;-38
2023/03/20 10:40:26;;;;;;;30.00;22.50;;;;;;;12.64;44.44;99590.14;107427;1251;75019;-39
2023/03/20 10:42:58;;;;;;;29.50;23.40;;;;;;;12.41;44.76;99580.17;107671;1255;68410;-39
2023/03/20 10:45:39;;;;;;;30.70;23.00;;;;;;;12.26;45.08;99579.17;107613;1253;73577;-39
2023/03/20 10:48:38;;;;;;;29.40;22.50;;;;;;;12.15;45.48;99575.89;107599;1254;61568;-39
2023/03/20 10:51:10;;;;;;;29.90;22.00;;;;;;;12.19;45.71;99570.29;107430;1254;61576;-38
2023/03/20 10:53:47;;;;;;;29.00;22.30;;;;;;;12.42;46.00;99565.59;107637;1254;74764;-39
2023/03/20 10:56:24;;;;;;;26.60;20.60;;;;;;;12.85;46.40;99559.80;107533;1254;69967;-39
2023/03/20 10:58:57;;;;;;;28.40;21.30;;;;;;;13.32;44.31;99562.59;107583;1254;72636;-39
2023/03/20 11:01:26;;;;;;;27.70;20.50;;;;;;;13.51;42.31;99557.95;107525;1253;61499;-39
2023/03/20 11:03:55;;;;;;;28.80;21.50;;;;;;;13.50;42.20;99552.35;107600;1253;61175;-39
2023/03/20 11:06:27;;;;;;;25.90;20.00;;;;;;;13.51;42.32;99550.25;107656;1257;73615;-39
2023/03/20 11:08:57;;;;;;;29.40;19.90;;;;;;;13.56;42.11;99552.00;107688;1254;69901;-39
2023/03/20 11:11:28;;;;;;;27.40;19.40;;;;;;;13.54;41.41;99548.64;107642;1253;73857;-39
2023/03/20 11:13:57;;;;;;;28.40;21.50;;;;;;;13.48;42.10;99547.11;107481;1258;61462;-39
2023/03/20 11:16:31;;;;;;;29.10;21.40;;;;;;;13.46;42.54;99539.84;107628;1254;61202;-39
2023/03/20 11:19:07;;;;;;;26.20;20.10;;;;;;;13.45;41.90;99546.29;107579;1254;75334;-39
2023/03/20 11:21:49;;;;;;;26.20;19.50;;;;;;;13.37;41.82;99544.57;107578;1254;69927;-39
2023/03/20 11:24:28;;;;;;;25.90;18.50;;;;;;;13.22;42.04;99536.80;107651;1254;73868;-39
2023/03/20 11:27:13;;;;;;;23.40;18.60;;;;;;;13.15;42.19;99536.09;107568;1257;60257;-39
2023/03/20 11:29:41;;;;;;;24.80;18.70;;;;;;;13.24;42.19;99536.20;107653;1252;60261;-39
2023/03/20 11:32:52;;;;;;;25.60;18.60;;;;;;;13.30;41.65;99531.89;107505;1254;75039;-39
2023/03/20 11:35:25;;;;;;;25.20;18.90;;;;;;;13.28;41.70;99530.09;107672;1254;69858;-39
2023/03/20 11:37:54;;;;;;;24.80;18.10;;;;;;;13.22;42.11;99523.10;107651;1254;73874;-39
2023/03/20 11:40:30;;;;;;;24.90;18.80;;;;;;;13.25;42.08;99520.02;107657;1257;61771;-39
2023/03/20 11:42:59;;;;;;;23.90;18.00;;;;;;;13.26;41.72;99518.95;107677;1255;60440;-39
2023/03/20 11:45:36;;;;;;;27.30;20.40;;;;;;;13.39;41.96;99522.35;107669;1252;75023;-39
2023/03/20 11:48:06;;;;;;;28.60;20.70;;;;;;;13.55;41.89;99519.31;107657;1254;68104;-39
2023/03/20 11:50:36;;;;;;;24.60;19.40;;;;;;;13.65;41.29;99514.20;107491;1260;73739;-39
2023/03/20 11:53:21;;;;;;;26.80;20.10;;;;;;;13.75;41.66;99509.83;107466;1260;61602;-39
2023/03/20 11:56:10;;;;;;;25.00;19.30;;;;;;;13.77;41.18;99504.56;107682;1253;61329;-38
2023/03/20 11:58:48;;;;;;;23.50;18.40;;;;;;;13.80;41.19;99507.30;107403;1254;74838;-39